sensor_id;sensor_type;location;lat;lon;timestamp;P1;durP1;ratioP1;P2;durP2;ratioP2
65560;SDS011;58166;52.100;6.308;2022-08-11T00:01:50;4.45;;;2.08;;
65560;SDS011;58166;52.100;6.308;2022-08-11T00:04:18;2.78;;;2.30;;
65560;SDS011;58166;52.100;6.308;2022-08-11T00:06:48;4.80;;;1.98;;
65560;SDS011;58166;52.100;6.308;2022-08-11T00:09:18;3.80;;;2.08;;
65560;SDS011;58166;52.100;6.308;2022-08-11T00:11:47;2.63;;;1.83;;
65560;SDS011;58166;52.100;6.308;2022-08-11T00:14:16;2.40;;;2.05;;
65560;SDS011;58166;52.100;6.308;2022-08-11T00:16:52;2.47;;;2.22;;
65560;SDS011;58166;52.100;6.308;2022-08-11T00:19:20;2.75;;;2.10;;
65560;SDS011;58166;52.100;6.308;2022-08-11T00:22:10;5.68;;;2.47;;
65560;SDS011;58166;52.100;6.308;2022-08-11T00:24:38;3.97;;;2.20;;
65560;SDS011;58166;52.100;6.308;2022-08-11T00:27:30;5.75;;;2.47;;
65560;SDS011;58166;52.100;6.308;2022-08-11T00:29:57;2.58;;;2.10;;
65560;SDS011;58166;52.100;6.308;2022-08-11T00:32:25;3.55;;;2.20;;
65560;SDS011;58166;52.100;6.308;2022-08-11T00:34:53;4.85;;;2.25;;
65560;SDS011;58166;52.100;6.308;2022-08-11T00:37:44;2.83;;;2.13;;
65560;SDS011;58166;52.100;6.308;2022-08-11T00:40:15;5.40;;;2.47;;
65560;SDS011;58166;52.100;6.308;2022-08-11T00:42:49;4.00;;;2.50;;
65560;SDS011;58166;52.100;6.308;2022-08-11T00:45:22;2.88;;;2.03;;
65560;SDS011;58166;52.100;6.308;2022-08-11T00:47:54;2.50;;;1.80;;
65560;SDS011;58166;52.100;6.308;2022-08-11T00:50:26;4.55;;;2.78;;
65560;SDS011;58166;52.100;6.308;2022-08-11T00:53:07;3.50;;;2.75;;
65560;SDS011;58166;52.100;6.308;2022-08-11T00:58:42;3.05;;;2.50;;
65560;SDS011;58166;52.100;6.308;2022-08-11T01:01:20;4.60;;;2.30;;
65560;SDS011;58166;52.100;6.308;2022-08-11T01:03:58;3.85;;;2.30;;
65560;SDS011;58166;52.100;6.308;2022-08-11T01:09:26;4.63;;;2.60;;
65560;SDS011;58166;52.100;6.308;2022-08-11T01:14:59;3.03;;;2.65;;
65560;SDS011;58166;52.100;6.308;2022-08-11T01:20:38;3.97;;;2.63;;
65560;SDS011;58166;52.100;6.308;2022-08-11T01:23:24;2.60;;;2.40;;
65560;SDS011;58166;52.100;6.308;2022-08-11T01:31:54;2.85;;;2.30;;
65560;SDS011;58166;52.100;6.308;2022-08-11T01:37:17;3.15;;;2.20;;
65560;SDS011;58166;52.100;6.308;2022-08-11T01:42:49;5.32;;;3.25;;
65560;SDS011;58166;52.100;6.308;2022-08-11T01:45:39;2.42;;;2.22;;
65560;SDS011;58166;52.100;6.308;2022-08-11T01:48:12;5.55;;;2.78;;
65560;SDS011;58166;52.100;6.308;2022-08-11T01:53:30;3.33;;;2.72;;
65560;SDS011;58166;52.100;6.308;2022-08-11T01:56:04;5.28;;;2.42;;
65560;SDS011;58166;52.100;6.308;2022-08-11T01:58:37;2.85;;;2.63;;
65560;SDS011;58166;52.100;6.308;2022-08-11T02:01:15;5.75;;;3.00;;
65560;SDS011;58166;52.100;6.308;2022-08-11T02:03:49;3.47;;;2.78;;
65560;SDS011;58166;52.100;6.308;2022-08-11T02:06:21;8.07;;;3.03;;
65560;SDS011;58166;52.100;6.308;2022-08-11T02:09:12;3.20;;;2.90;;
65560;SDS011;58166;52.100;6.308;2022-08-11T02:11:44;8.45;;;3.20;;
65560;SDS011;58166;52.100;6.308;2022-08-11T02:14:14;5.20;;;3.00;;
65560;SDS011;58166;52.100;6.308;2022-08-11T02:16:50;8.50;;;3.25;;
65560;SDS011;58166;52.100;6.308;2022-08-11T02:19:23;3.60;;;3.10;;
65560;SDS011;58166;52.100;6.308;2022-08-11T02:22:15;5.05;;;3.35;;
65560;SDS011;58166;52.100;6.308;2022-08-11T02:25:05;4.07;;;2.92;;
65560;SDS011;58166;52.100;6.308;2022-08-11T02:27:35;5.20;;;3.75;;
65560;SDS011;58166;52.100;6.308;2022-08-11T02:30:06;5.25;;;3.05;;
65560;SDS011;58166;52.100;6.308;2022-08-11T02:32:35;5.57;;;3.38;;
65560;SDS011;58166;52.100;6.308;2022-08-11T02:35:22;4.07;;;3.03;;
65560;SDS011;58166;52.100;6.308;2022-08-11T02:37:54;6.28;;;3.25;;
65560;SDS011;58166;52.100;6.308;2022-08-11T02:40:33;5.95;;;3.28;;
65560;SDS011;58166;52.100;6.308;2022-08-11T02:43:11;4.57;;;3.05;;
65560;SDS011;58166;52.100;6.308;2022-08-11T02:45:46;4.00;;;2.78;;
65560;SDS011;58166;52.100;6.308;2022-08-11T02:48:19;4.18;;;3.22;;
65560;SDS011;58166;52.100;6.308;2022-08-11T02:51:11;5.13;;;3.28;;
65560;SDS011;58166;52.100;6.308;2022-08-11T02:53:48;3.72;;;2.90;;
65560;SDS011;58166;52.100;6.308;2022-08-11T02:56:26;4.35;;;3.10;;
65560;SDS011;58166;52.100;6.308;2022-08-11T02:58:58;4.70;;;3.00;;
65560;SDS011;58166;52.100;6.308;2022-08-11T03:01:48;5.90;;;3.50;;
65560;SDS011;58166;52.100;6.308;2022-08-11T03:04:29;5.70;;;3.42;;
65560;SDS011;58166;52.100;6.308;2022-08-11T03:07:05;4.72;;;3.30;;
65560;SDS011;58166;52.100;6.308;2022-08-11T03:09:57;3.97;;;3.13;;
65560;SDS011;58166;52.100;6.308;2022-08-11T03:12:29;8.00;;;4.35;;
65560;SDS011;58166;52.100;6.308;2022-08-11T03:15:19;4.70;;;3.72;;
65560;SDS011;58166;52.100;6.308;2022-08-11T03:18:11;4.43;;;3.50;;
65560;SDS011;58166;52.100;6.308;2022-08-11T03:20:44;4.65;;;3.78;;
65560;SDS011;58166;52.100;6.308;2022-08-11T03:23:13;4.63;;;3.70;;
65560;SDS011;58166;52.100;6.308;2022-08-11T03:25:48;8.15;;;3.97;;
65560;SDS011;58166;52.100;6.308;2022-08-11T03:28:25;5.72;;;4.10;;
65560;SDS011;58166;52.100;6.308;2022-08-11T03:30:55;5.05;;;4.22;;
65560;SDS011;58166;52.100;6.308;2022-08-11T03:33:24;4.72;;;4.22;;
65560;SDS011;58166;52.100;6.308;2022-08-11T03:36:17;6.53;;;4.18;;
65560;SDS011;58166;52.100;6.308;2022-08-11T03:38:55;5.60;;;4.00;;
65560;SDS011;58166;52.100;6.308;2022-08-11T03:41:26;5.03;;;4.43;;
65560;SDS011;58166;52.100;6.308;2022-08-11T03:44:36;4.55;;;4.15;;
65560;SDS011;58166;52.100;6.308;2022-08-11T03:47:09;5.97;;;4.95;;
65560;SDS011;58166;52.100;6.308;2022-08-11T03:52:22;5.38;;;4.28;;
65560;SDS011;58166;52.100;6.308;2022-08-11T03:54:54;6.60;;;4.63;;
65560;SDS011;58166;52.100;6.308;2022-08-11T03:57:41;6.97;;;4.78;;
65560;SDS011;58166;52.100;6.308;2022-08-11T04:08:59;7.07;;;4.60;;
65560;SDS011;58166;52.100;6.308;2022-08-11T04:11:40;6.25;;;4.65;;
65560;SDS011;58166;52.100;6.308;2022-08-11T04:14:32;5.90;;;4.55;;
65560;SDS011;58166;52.100;6.308;2022-08-11T04:17:33;6.85;;;4.68;;
65560;SDS011;58166;52.100;6.308;2022-08-11T04:20:15;5.63;;;4.68;;
65560;SDS011;58166;52.100;6.308;2022-08-11T04:22:52;5.55;;;4.68;;
65560;SDS011;58166;52.100;6.308;2022-08-11T04:25:32;7.00;;;4.93;;
65560;SDS011;58166;52.100;6.308;2022-08-11T04:28:27;7.93;;;5.05;;
65560;SDS011;58166;52.100;6.308;2022-08-11T04:31:23;7.60;;;4.80;;
65560;SDS011;58166;52.100;6.308;2022-08-11T04:34:33;7.53;;;4.55;;
65560;SDS011;58166;52.100;6.308;2022-08-11T04:37:15;5.80;;;4.55;;
65560;SDS011;58166;52.100;6.308;2022-08-11T04:40:03;7.47;;;5.43;;
65560;SDS011;58166;52.100;6.308;2022-08-11T04:42:48;5.75;;;5.15;;
65560;SDS011;58166;52.100;6.308;2022-08-11T04:48:44;6.07;;;5.35;;
65560;SDS011;58166;52.100;6.308;2022-08-11T04:51:43;5.30;;;4.80;;
65560;SDS011;58166;52.100;6.308;2022-08-11T04:54:39;4.95;;;4.47;;
65560;SDS011;58166;52.100;6.308;2022-08-11T04:57:32;7.55;;;5.00;;
65560;SDS011;58166;52.100;6.308;2022-08-11T05:00:20;7.07;;;5.13;;
65560;SDS011;58166;52.100;6.308;2022-08-11T05:06:11;5.85;;;4.75;;
65560;SDS011;58166;52.100;6.308;2022-08-11T05:11:33;6.18;;;5.40;;
65560;SDS011;58166;52.100;6.308;2022-08-11T05:14:20;6.90;;;4.30;;
65560;SDS011;58166;52.100;6.308;2022-08-11T05:17:10;6.30;;;4.70;;
65560;SDS011;58166;52.100;6.308;2022-08-11T05:19:55;5.22;;;4.35;;
65560;SDS011;58166;52.100;6.308;2022-08-11T05:22:41;5.20;;;4.07;;
65560;SDS011;58166;52.100;6.308;2022-08-11T05:25:28;6.00;;;4.53;;
65560;SDS011;58166;52.100;6.308;2022-08-11T05:28:36;9.13;;;4.88;;
65560;SDS011;58166;52.100;6.308;2022-08-11T05:31:24;5.15;;;3.90;;
65560;SDS011;58166;52.100;6.308;2022-08-11T05:34:11;7.82;;;4.28;;
65560;SDS011;58166;52.100;6.308;2022-08-11T05:36:59;5.75;;;4.10;;
65560;SDS011;58166;52.100;6.308;2022-08-11T05:39:50;6.43;;;4.10;;
65560;SDS011;58166;52.100;6.308;2022-08-11T05:42:38;4.68;;;3.92;;
65560;SDS011;58166;52.100;6.308;2022-08-11T05:45:26;4.53;;;3.90;;
65560;SDS011;58166;52.100;6.308;2022-08-11T05:48:30;7.15;;;4.00;;
65560;SDS011;58166;52.100;6.308;2022-08-11T05:51:17;4.55;;;3.58;;
65560;SDS011;58166;52.100;6.308;2022-08-11T05:54:03;5.32;;;3.97;;
65560;SDS011;58166;52.100;6.308;2022-08-11T05:56:55;8.45;;;3.45;;
65560;SDS011;58166;52.100;6.308;2022-08-11T05:59:24;5.10;;;3.50;;
65560;SDS011;58166;52.100;6.308;2022-08-11T06:01:57;4.60;;;3.65;;
65560;SDS011;58166;52.100;6.308;2022-08-11T06:04:26;6.22;;;3.88;;
65560;SDS011;58166;52.100;6.308;2022-08-11T06:06:56;7.25;;;4.28;;
65560;SDS011;58166;52.100;6.308;2022-08-11T06:09:25;5.25;;;3.72;;
65560;SDS011;58166;52.100;6.308;2022-08-11T06:11:54;4.30;;;3.60;;
65560;SDS011;58166;52.100;6.308;2022-08-11T06:14:22;4.88;;;4.00;;
65560;SDS011;58166;52.100;6.308;2022-08-11T06:16:51;7.40;;;4.15;;
65560;SDS011;58166;52.100;6.308;2022-08-11T06:19:21;4.80;;;3.40;;
65560;SDS011;58166;52.100;6.308;2022-08-11T06:21:49;5.30;;;4.07;;
65560;SDS011;58166;52.100;6.308;2022-08-11T06:24:19;4.93;;;3.72;;
65560;SDS011;58166;52.100;6.308;2022-08-11T06:26:49;5.82;;;3.33;;
65560;SDS011;58166;52.100;6.308;2022-08-11T06:29:37;6.38;;;3.70;;
65560;SDS011;58166;52.100;6.308;2022-08-11T06:32:22;4.75;;;3.45;;
65560;SDS011;58166;52.100;6.308;2022-08-11T06:34:54;6.65;;;3.83;;
65560;SDS011;58166;52.100;6.308;2022-08-11T06:37:28;7.68;;;3.70;;
65560;SDS011;58166;52.100;6.308;2022-08-11T06:40:04;5.38;;;3.80;;
65560;SDS011;58166;52.100;6.308;2022-08-11T06:42:40;6.15;;;3.58;;
65560;SDS011;58166;52.100;6.308;2022-08-11T06:45:13;5.75;;;3.33;;
65560;SDS011;58166;52.100;6.308;2022-08-11T06:47:43;3.58;;;3.25;;
65560;SDS011;58166;52.100;6.308;2022-08-11T06:50:13;6.05;;;3.35;;
65560;SDS011;58166;52.100;6.308;2022-08-11T06:53:00;6.15;;;3.45;;
65560;SDS011;58166;52.100;6.308;2022-08-11T06:55:29;3.67;;;3.30;;
65560;SDS011;58166;52.100;6.308;2022-08-11T06:58:25;3.58;;;3.28;;
65560;SDS011;58166;52.100;6.308;2022-08-11T07:01:12;10.27;;;3.40;;
65560;SDS011;58166;52.100;6.308;2022-08-11T07:03:42;4.22;;;3.30;;
65560;SDS011;58166;52.100;6.308;2022-08-11T07:06:16;6.05;;;3.17;;
65560;SDS011;58166;52.100;6.308;2022-08-11T07:14:51;5.07;;;3.00;;
65560;SDS011;58166;52.100;6.308;2022-08-11T07:17:37;5.97;;;2.75;;
65560;SDS011;58166;52.100;6.308;2022-08-11T07:20:08;3.83;;;2.70;;
65560;SDS011;58166;52.100;6.308;2022-08-11T07:22:54;4.95;;;3.05;;
65560;SDS011;58166;52.100;6.308;2022-08-11T07:25:40;3.40;;;2.47;;
65560;SDS011;58166;52.100;6.308;2022-08-11T07:28:26;5.03;;;3.00;;
65560;SDS011;58166;52.100;6.308;2022-08-11T07:31:16;4.25;;;2.35;;
65560;SDS011;58166;52.100;6.308;2022-08-11T07:33:46;3.65;;;2.40;;
65560;SDS011;58166;52.100;6.308;2022-08-11T07:36:36;4.50;;;2.35;;
65560;SDS011;58166;52.100;6.308;2022-08-11T07:39:06;5.17;;;2.30;;
65560;SDS011;58166;52.100;6.308;2022-08-11T07:41:34;2.78;;;2.45;;
65560;SDS011;58166;52.100;6.308;2022-08-11T07:44:02;3.22;;;2.30;;
65560;SDS011;58166;52.100;6.308;2022-08-11T07:46:36;5.70;;;2.58;;
65560;SDS011;58166;52.100;6.308;2022-08-11T07:49:24;3.80;;;2.22;;
65560;SDS011;58166;52.100;6.308;2022-08-11T07:52:10;3.45;;;2.70;;
65560;SDS011;58166;52.100;6.308;2022-08-11T07:54:54;3.08;;;2.22;;
65560;SDS011;58166;52.100;6.308;2022-08-11T07:57:22;5.43;;;2.30;;
65560;SDS011;58166;52.100;6.308;2022-08-11T08:00:28;2.78;;;2.33;;
65560;SDS011;58166;52.100;6.308;2022-08-11T08:03:19;3.50;;;2.10;;
65560;SDS011;58166;52.100;6.308;2022-08-11T08:06:19;3.65;;;2.10;;
65560;SDS011;58166;52.100;6.308;2022-08-11T08:09:05;4.65;;;2.15;;
65560;SDS011;58166;52.100;6.308;2022-08-11T08:11:51;6.47;;;1.83;;
65560;SDS011;58166;52.100;6.308;2022-08-11T08:14:36;2.60;;;1.92;;
65560;SDS011;58166;52.100;6.308;2022-08-11T08:17:21;2.30;;;2.08;;
65560;SDS011;58166;52.100;6.308;2022-08-11T08:20:10;4.72;;;2.38;;
65560;SDS011;58166;52.100;6.308;2022-08-11T08:22:38;2.38;;;2.17;;
65560;SDS011;58166;52.100;6.308;2022-08-11T08:25:12;2.28;;;1.95;;
65560;SDS011;58166;52.100;6.308;2022-08-11T08:27:40;3.10;;;1.70;;
65560;SDS011;58166;52.100;6.308;2022-08-11T08:30:09;3.13;;;2.35;;
65560;SDS011;58166;52.100;6.308;2022-08-11T08:32:54;5.05;;;2.22;;
65560;SDS011;58166;52.100;6.308;2022-08-11T08:35:24;6.55;;;2.10;;
65560;SDS011;58166;52.100;6.308;2022-08-11T08:37:57;2.22;;;2.00;;
65560;SDS011;58166;52.100;6.308;2022-08-11T08:40:26;5.50;;;2.53;;
65560;SDS011;58166;52.100;6.308;2022-08-11T08:42:54;2.83;;;2.10;;
65560;SDS011;58166;52.100;6.308;2022-08-11T08:45:22;3.72;;;1.98;;
65560;SDS011;58166;52.100;6.308;2022-08-11T08:47:51;4.97;;;1.83;;
65560;SDS011;58166;52.100;6.308;2022-08-11T08:52:55;5.57;;;2.33;;
65560;SDS011;58166;52.100;6.308;2022-08-11T08:55:24;3.80;;;1.90;;
65560;SDS011;58166;52.100;6.308;2022-08-11T08:57:53;4.50;;;2.00;;
65560;SDS011;58166;52.100;6.308;2022-08-11T09:00:23;2.77;;;2.00;;
65560;SDS011;58166;52.100;6.308;2022-08-11T09:02:50;4.03;;;1.90;;
65560;SDS011;58166;52.100;6.308;2022-08-11T09:05:18;3.60;;;2.10;;
65560;SDS011;58166;52.100;6.308;2022-08-11T09:07:46;5.28;;;1.90;;
65560;SDS011;58166;52.100;6.308;2022-08-11T09:10:18;3.42;;;2.00;;
65560;SDS011;58166;52.100;6.308;2022-08-11T09:12:46;3.22;;;2.15;;
65560;SDS011;58166;52.100;6.308;2022-08-11T09:15:14;4.55;;;2.10;;
65560;SDS011;58166;52.100;6.308;2022-08-11T09:17:45;3.55;;;2.15;;
65560;SDS011;58166;52.100;6.308;2022-08-11T09:20:14;5.10;;;2.67;;
65560;SDS011;58166;52.100;6.308;2022-08-11T09:22:43;2.05;;;1.80;;
65560;SDS011;58166;52.100;6.308;2022-08-11T09:25:51;3.75;;;1.73;;
65560;SDS011;58166;52.100;6.308;2022-08-11T09:28:37;4.38;;;2.42;;
65560;SDS011;58166;52.100;6.308;2022-08-11T09:31:04;4.72;;;2.30;;
65560;SDS011;58166;52.100;6.308;2022-08-11T09:33:32;3.67;;;2.17;;
65560;SDS011;58166;52.100;6.308;2022-08-11T09:36:01;3.35;;;1.90;;
65560;SDS011;58166;52.100;6.308;2022-08-11T09:38:50;4.07;;;2.13;;
65560;SDS011;58166;52.100;6.308;2022-08-11T09:41:37;4.03;;;1.85;;
65560;SDS011;58166;52.100;6.308;2022-08-11T09:44:27;2.97;;;2.05;;
65560;SDS011;58166;52.100;6.308;2022-08-11T09:47:18;6.20;;;2.00;;
65560;SDS011;58166;52.100;6.308;2022-08-11T09:49:48;2.83;;;1.95;;
65560;SDS011;58166;52.100;6.308;2022-08-11T09:52:18;2.15;;;1.95;;
65560;SDS011;58166;52.100;6.308;2022-08-11T09:54:46;2.00;;;1.80;;
65560;SDS011;58166;52.100;6.308;2022-08-11T09:57:18;3.75;;;1.85;;
65560;SDS011;58166;52.100;6.308;2022-08-11T10:00:05;6.65;;;2.10;;
65560;SDS011;58166;52.100;6.308;2022-08-11T10:02:39;3.08;;;1.90;;
65560;SDS011;58166;52.100;6.308;2022-08-11T10:05:07;2.50;;;1.75;;
65560;SDS011;58166;52.100;6.308;2022-08-11T10:07:53;2.55;;;2.20;;
65560;SDS011;58166;52.100;6.308;2022-08-11T10:10:21;5.07;;;2.13;;
65560;SDS011;58166;52.100;6.308;2022-08-11T10:12:53;4.72;;;1.90;;
65560;SDS011;58166;52.100;6.308;2022-08-11T10:15:22;4.13;;;1.70;;
65560;SDS011;58166;52.100;6.308;2022-08-11T10:18:05;2.92;;;2.00;;
65560;SDS011;58166;52.100;6.308;2022-08-11T10:20:50;3.90;;;1.40;;
65560;SDS011;58166;52.100;6.308;2022-08-11T10:23:19;3.05;;;1.63;;
65560;SDS011;58166;52.100;6.308;2022-08-11T10:26:27;5.05;;;1.88;;
65560;SDS011;58166;52.100;6.308;2022-08-11T10:29:14;3.20;;;1.85;;
65560;SDS011;58166;52.100;6.308;2022-08-11T10:32:02;2.97;;;1.60;;
65560;SDS011;58166;52.100;6.308;2022-08-11T10:34:57;4.07;;;1.63;;
65560;SDS011;58166;52.100;6.308;2022-08-11T10:37:25;3.33;;;1.70;;
65560;SDS011;58166;52.100;6.308;2022-08-11T10:40:21;3.45;;;1.80;;
65560;SDS011;58166;52.100;6.308;2022-08-11T10:42:48;4.70;;;1.95;;
65560;SDS011;58166;52.100;6.308;2022-08-11T10:45:29;2.10;;;1.83;;
65560;SDS011;58166;52.100;6.308;2022-08-11T10:48:30;3.20;;;1.77;;
65560;SDS011;58166;52.100;6.308;2022-08-11T10:51:01;2.42;;;1.92;;
65560;SDS011;58166;52.100;6.308;2022-08-11T10:54:03;2.30;;;1.60;;
65560;SDS011;58166;52.100;6.308;2022-08-11T10:56:48;4.45;;;1.80;;
65560;SDS011;58166;52.100;6.308;2022-08-11T10:59:33;2.85;;;1.90;;
65560;SDS011;58166;52.100;6.308;2022-08-11T11:02:03;3.53;;;1.88;;
65560;SDS011;58166;52.100;6.308;2022-08-11T11:04:32;3.35;;;1.80;;
65560;SDS011;58166;52.100;6.308;2022-08-11T11:07:06;2.08;;;1.63;;
65560;SDS011;58166;52.100;6.308;2022-08-11T11:09:39;1.42;;;1.33;;
65560;SDS011;58166;52.100;6.308;2022-08-11T11:12:10;3.30;;;1.80;;
65560;SDS011;58166;52.100;6.308;2022-08-11T11:14:55;3.25;;;1.80;;
65560;SDS011;58166;52.100;6.308;2022-08-11T11:17:45;1.38;;;1.27;;
65560;SDS011;58166;52.100;6.308;2022-08-11T11:20:27;1.73;;;1.45;;
65560;SDS011;58166;52.100;6.308;2022-08-11T11:23:05;1.80;;;1.63;;
65560;SDS011;58166;52.100;6.308;2022-08-11T11:25:39;1.70;;;1.60;;
65560;SDS011;58166;52.100;6.308;2022-08-11T11:30:59;3.60;;;1.60;;
65560;SDS011;58166;52.100;6.308;2022-08-11T11:33:35;3.53;;;1.40;;
65560;SDS011;58166;52.100;6.308;2022-08-11T11:36:30;3.40;;;1.52;;
65560;SDS011;58166;52.100;6.308;2022-08-11T11:39:01;2.00;;;1.80;;
65560;SDS011;58166;52.100;6.308;2022-08-11T11:41:29;2.95;;;1.50;;
65560;SDS011;58166;52.100;6.308;2022-08-11T11:43:56;2.75;;;1.60;;
65560;SDS011;58166;52.100;6.308;2022-08-11T11:46:27;2.58;;;1.90;;
65560;SDS011;58166;52.100;6.308;2022-08-11T11:48:57;2.43;;;1.70;;
65560;SDS011;58166;52.100;6.308;2022-08-11T11:51:42;4.13;;;1.50;;
65560;SDS011;58166;52.100;6.308;2022-08-11T11:54:15;1.83;;;1.60;;
65560;SDS011;58166;52.100;6.308;2022-08-11T11:56:42;2.67;;;1.55;;
65560;SDS011;58166;52.100;6.308;2022-08-11T11:59:11;3.10;;;1.50;;
65560;SDS011;58166;52.100;6.308;2022-08-11T12:01:57;5.55;;;1.60;;
65560;SDS011;58166;52.100;6.308;2022-08-11T12:04:26;3.97;;;1.70;;
65560;SDS011;58166;52.100;6.308;2022-08-11T12:06:54;4.38;;;1.65;;
65560;SDS011;58166;52.100;6.308;2022-08-11T12:09:42;2.33;;;1.60;;
65560;SDS011;58166;52.100;6.308;2022-08-11T12:12:10;2.10;;;1.48;;
65560;SDS011;58166;52.100;6.308;2022-08-11T12:14:56;4.22;;;1.73;;
65560;SDS011;58166;52.100;6.308;2022-08-11T12:17:23;2.55;;;1.50;;
65560;SDS011;58166;52.100;6.308;2022-08-11T12:19:52;5.47;;;1.60;;
65560;SDS011;58166;52.100;6.308;2022-08-11T12:22:22;3.72;;;1.50;;
65560;SDS011;58166;52.100;6.308;2022-08-11T12:25:07;5.70;;;1.77;;
65560;SDS011;58166;52.100;6.308;2022-08-11T12:27:53;3.08;;;1.50;;
65560;SDS011;58166;52.100;6.308;2022-08-11T12:30:21;2.92;;;1.70;;
65560;SDS011;58166;52.100;6.308;2022-08-11T12:32:49;3.63;;;1.65;;
65560;SDS011;58166;52.100;6.308;2022-08-11T12:35:18;4.15;;;1.52;;
65560;SDS011;58166;52.100;6.308;2022-08-11T12:37:47;2.65;;;1.48;;
65560;SDS011;58166;52.100;6.308;2022-08-11T12:40:17;1.73;;;1.50;;
65560;SDS011;58166;52.100;6.308;2022-08-11T12:43:23;4.10;;;1.42;;
65560;SDS011;58166;52.100;6.308;2022-08-11T12:46:23;1.90;;;1.70;;
65560;SDS011;58166;52.100;6.308;2022-08-11T12:48:54;3.70;;;1.80;;
65560;SDS011;58166;52.100;6.308;2022-08-11T12:51:41;3.20;;;1.65;;
65560;SDS011;58166;52.100;6.308;2022-08-11T12:54:44;3.47;;;1.73;;
65560;SDS011;58166;52.100;6.308;2022-08-11T12:57:16;2.97;;;1.80;;
65560;SDS011;58166;52.100;6.308;2022-08-11T13:00:04;4.53;;;1.90;;
65560;SDS011;58166;52.100;6.308;2022-08-11T13:02:50;2.05;;;1.60;;
65560;SDS011;58166;52.100;6.308;2022-08-11T13:05:35;6.63;;;1.70;;
65560;SDS011;58166;52.100;6.308;2022-08-11T13:08:11;4.22;;;1.73;;
65560;SDS011;58166;52.100;6.308;2022-08-11T13:10:41;3.60;;;1.73;;
65560;SDS011;58166;52.100;6.308;2022-08-11T13:13:26;2.17;;;1.55;;
65560;SDS011;58166;52.100;6.308;2022-08-11T13:16:15;3.20;;;1.90;;
65560;SDS011;58166;52.100;6.308;2022-08-11T13:18:43;3.47;;;1.83;;
65560;SDS011;58166;52.100;6.308;2022-08-11T13:21:11;3.15;;;1.65;;
65560;SDS011;58166;52.100;6.308;2022-08-11T13:23:54;2.83;;;1.67;;
65560;SDS011;58166;52.100;6.308;2022-08-11T13:26:31;2.50;;;1.70;;
65560;SDS011;58166;52.100;6.308;2022-08-11T13:29:15;4.88;;;1.42;;
65560;SDS011;58166;52.100;6.308;2022-08-11T13:31:43;6.13;;;2.05;;
65560;SDS011;58166;52.100;6.308;2022-08-11T13:34:11;3.47;;;1.80;;
65560;SDS011;58166;52.100;6.308;2022-08-11T13:36:39;3.78;;;1.70;;
65560;SDS011;58166;52.100;6.308;2022-08-11T13:39:08;2.72;;;1.75;;
65560;SDS011;58166;52.100;6.308;2022-08-11T13:41:36;3.85;;;1.70;;
65560;SDS011;58166;52.100;6.308;2022-08-11T13:44:08;3.22;;;1.40;;
65560;SDS011;58166;52.100;6.308;2022-08-11T13:46:36;2.63;;;1.43;;
65560;SDS011;58166;52.100;6.308;2022-08-11T13:49:05;1.73;;;1.63;;
65560;SDS011;58166;52.100;6.308;2022-08-11T13:51:34;1.90;;;1.40;;
65560;SDS011;58166;52.100;6.308;2022-08-11T13:54:04;3.77;;;1.83;;
65560;SDS011;58166;52.100;6.308;2022-08-11T13:56:34;2.87;;;1.83;;
65560;SDS011;58166;52.100;6.308;2022-08-11T13:59:05;1.60;;;1.50;;
65560;SDS011;58166;52.100;6.308;2022-08-11T14:01:34;4.47;;;1.55;;
65560;SDS011;58166;52.100;6.308;2022-08-11T14:04:25;2.05;;;1.42;;
65560;SDS011;58166;52.100;6.308;2022-08-11T14:06:57;3.25;;;1.55;;
65560;SDS011;58166;52.100;6.308;2022-08-11T14:09:27;2.15;;;1.63;;
65560;SDS011;58166;52.100;6.308;2022-08-11T14:11:57;2.42;;;1.85;;
65560;SDS011;58166;52.100;6.308;2022-08-11T14:14:50;1.45;;;1.30;;
65560;SDS011;58166;52.100;6.308;2022-08-11T14:17:19;4.30;;;1.73;;
65560;SDS011;58166;52.100;6.308;2022-08-11T14:20:08;2.17;;;1.83;;
65560;SDS011;58166;52.100;6.308;2022-08-11T14:22:56;2.00;;;1.73;;
65560;SDS011;58166;52.100;6.308;2022-08-11T14:25:23;3.75;;;1.50;;
65560;SDS011;58166;52.100;6.308;2022-08-11T14:28:12;2.50;;;1.55;;
65560;SDS011;58166;52.100;6.308;2022-08-11T14:30:56;2.88;;;1.50;;
65560;SDS011;58166;52.100;6.308;2022-08-11T14:33:26;2.78;;;1.70;;
65560;SDS011;58166;52.100;6.308;2022-08-11T14:36:14;1.60;;;1.45;;
65560;SDS011;58166;52.100;6.308;2022-08-11T14:38:42;2.15;;;1.38;;
65560;SDS011;58166;52.100;6.308;2022-08-11T14:41:10;3.83;;;1.80;;
65560;SDS011;58166;52.100;6.308;2022-08-11T14:43:56;2.40;;;1.55;;
65560;SDS011;58166;52.100;6.308;2022-08-11T14:46:42;2.65;;;1.70;;
65560;SDS011;58166;52.100;6.308;2022-08-11T14:49:27;3.63;;;1.73;;
65560;SDS011;58166;52.100;6.308;2022-08-11T14:51:55;4.40;;;1.70;;
65560;SDS011;58166;52.100;6.308;2022-08-11T14:54:23;1.92;;;1.73;;
65560;SDS011;58166;52.100;6.308;2022-08-11T14:57:09;3.72;;;1.65;;
65560;SDS011;58166;52.100;6.308;2022-08-11T14:59:38;3.50;;;1.63;;
65560;SDS011;58166;52.100;6.308;2022-08-11T15:02:06;3.43;;;1.67;;
65560;SDS011;58166;52.100;6.308;2022-08-11T15:04:51;1.98;;;1.60;;
65560;SDS011;58166;52.100;6.308;2022-08-11T15:07:21;1.85;;;1.33;;
65560;SDS011;58166;52.100;6.308;2022-08-11T15:09:55;3.35;;;1.63;;
65560;SDS011;58166;52.100;6.308;2022-08-11T15:12:39;3.83;;;1.45;;
65560;SDS011;58166;52.100;6.308;2022-08-11T15:15:09;1.73;;;1.50;;
65560;SDS011;58166;52.100;6.308;2022-08-11T15:17:55;2.03;;;1.60;;
65560;SDS011;58166;52.100;6.308;2022-08-11T15:20:24;3.92;;;1.65;;
65560;SDS011;58166;52.100;6.308;2022-08-11T15:23:09;4.22;;;1.52;;
65560;SDS011;58166;52.100;6.308;2022-08-11T15:25:56;4.72;;;1.73;;
65560;SDS011;58166;52.100;6.308;2022-08-11T15:28:25;3.80;;;1.50;;
65560;SDS011;58166;52.100;6.308;2022-08-11T15:31:12;3.13;;;1.70;;
65560;SDS011;58166;52.100;6.308;2022-08-11T15:33:59;1.92;;;1.75;;
65560;SDS011;58166;52.100;6.308;2022-08-11T15:36:46;4.70;;;1.80;;
65560;SDS011;58166;52.100;6.308;2022-08-11T15:39:33;2.15;;;1.23;;
65560;SDS011;58166;52.100;6.308;2022-08-11T15:44:49;2.55;;;1.48;;
65560;SDS011;58166;52.100;6.308;2022-08-11T15:47:38;2.75;;;1.60;;
65560;SDS011;58166;52.100;6.308;2022-08-11T15:50:08;4.22;;;1.40;;
65560;SDS011;58166;52.100;6.308;2022-08-11T15:52:42;3.30;;;1.50;;
65560;SDS011;58166;52.100;6.308;2022-08-11T15:55:11;2.58;;;1.63;;
65560;SDS011;58166;52.100;6.308;2022-08-11T15:57:40;1.33;;;1.20;;
65560;SDS011;58166;52.100;6.308;2022-08-11T16:00:25;2.42;;;1.20;;
65560;SDS011;58166;52.100;6.308;2022-08-11T16:03:08;1.60;;;1.48;;
65560;SDS011;58166;52.100;6.308;2022-08-11T16:06:13;2.10;;;1.42;;
65560;SDS011;58166;52.100;6.308;2022-08-11T16:08:42;4.13;;;1.23;;
65560;SDS011;58166;52.100;6.308;2022-08-11T16:11:10;2.25;;;1.40;;
65560;SDS011;58166;52.100;6.308;2022-08-11T16:13:39;2.22;;;1.13;;
65560;SDS011;58166;52.100;6.308;2022-08-11T16:16:31;4.55;;;1.60;;
65560;SDS011;58166;52.100;6.308;2022-08-11T16:19:00;3.28;;;1.40;;
65560;SDS011;58166;52.100;6.308;2022-08-11T16:21:31;1.35;;;1.25;;
65560;SDS011;58166;52.100;6.308;2022-08-11T16:24:02;3.80;;;1.40;;
65560;SDS011;58166;52.100;6.308;2022-08-11T16:26:31;2.37;;;1.20;;
65560;SDS011;58166;52.100;6.308;2022-08-11T16:29:19;3.15;;;1.20;;
65560;SDS011;58166;52.100;6.308;2022-08-11T16:31:48;1.60;;;1.10;;
65560;SDS011;58166;52.100;6.308;2022-08-11T16:34:32;1.98;;;1.23;;
65560;SDS011;58166;52.100;6.308;2022-08-11T16:37:17;1.70;;;1.60;;
65560;SDS011;58166;52.100;6.308;2022-08-11T16:40:04;4.72;;;1.40;;
65560;SDS011;58166;52.100;6.308;2022-08-11T16:42:31;2.17;;;1.50;;
65560;SDS011;58166;52.100;6.308;2022-08-11T16:45:36;5.22;;;1.27;;
65560;SDS011;58166;52.100;6.308;2022-08-11T16:48:22;1.70;;;1.20;;
65560;SDS011;58166;52.100;6.308;2022-08-11T16:51:05;1.67;;;1.25;;
65560;SDS011;58166;52.100;6.308;2022-08-11T16:53:33;1.98;;;1.25;;
65560;SDS011;58166;52.100;6.308;2022-08-11T16:56:21;1.42;;;1.15;;